Great Scott, Minnesota
Current Conditions -  °F | °C
As of 9:53 PM on Tuesday 25 Nov 2014 (Local Time) from KHIB Reporting Station
Overcast Overcast  
Wind Chill: 19°   Ceiling: 1600
Heat Index: 19°   Visibility: 10mi
Dew Point:   Wind: 3mph
Humidity: 57%   Direction: 190°S
Pressure: 30.02"   Gusts: NA
Location:  47.4951°N, 92.7779°W
Report Text: KHIB 260353Z AUTO 19003KT 10SM OVC016 M07/M14 A3002 RMK AO2 SLP194 T10721144
Loading
Personal Weather Stations






























Interactive Weather Map New forecast layout! Learn more

10-Day Weather Forecast

Advertisements
Track Severe Weather on mobile